KEWR/EWR METAR and TAF weather

Enter ICAO airport designator
Station Type Date Time Source
KEWR METAR 2019/06/26 05:51 UTC NOAA

KEWR 260551Z 34009KT 10SM FEW250 25/17 A2991 RMK AO2 SLP128 T02500167 10300 20244 51015


Station Type Date Time Source
KEWR Decoded METAR 2019/06/26 05:51 UTC NOAA

NEWARK INTERNATIONAL AIRPORT, NJ, United States (KEWR) 40-41N 74-10W 7M
Jun 26, 2019 - 01:51 AM EDT / 2019.06.26 0551 UTC
Wind: from the NNW (340 degrees) at 10 MPH (9 KT):0
Visibility: 10 mile(s):0
Sky conditions: mostly clear
Temperature: 77.0 F (25.0 C)
Dew Point: 62.1 F (16.7 C)
Relative Humidity: 59%
Pressure (altimeter): 29.91 in. Hg (1012 hPa)
Pressure tendency: 0.04 inches (1.5 hPa) higher than three hours ago
ob: KEWR 260551Z 34009KT 10SM FEW250 25/17 A2991 RMK AO2 SLP128 T02500167 10300 20244 51015
cycle: 6

Station Type Date Time Source
KEWR TAF 2019/06/26 06:24 UTC NOAA

TAF KEWR 260522Z 2606/2712 30005KT P6SM FEW250
FM260900 33006KT P6SM FEW250
FM261600 28006KT P6SM FEW070
FM262100 23008KT P6SM SCT070
FM270300 28006KT P6SM FEW250
FM270500 33005KT P6SM FEW250

Example: see airport list